createdAt,value
2018-06-16T00:00:33.983Z,93908.27
2018-06-16T00:03:01.662Z,93910.66
2018-06-16T00:05:29.418Z,93908.63
2018-06-16T00:07:57.167Z,93907.77
2018-06-16T00:10:24.878Z,93909.48
2018-06-16T00:12:52.562Z,93909.41
2018-06-16T00:15:20.292Z,93907.52
2018-06-16T00:17:47.979Z,93900.86
2018-06-16T00:20:15.662Z,93904.51
2018-06-16T00:22:43.366Z,93904.03
2018-06-16T00:25:11.071Z,93900.45
2018-06-16T00:27:38.776Z,93899.84
2018-06-16T00:30:06.423Z,93900.62
2018-06-16T00:32:34.139Z,93892.64
2018-06-16T00:35:01.855Z,93896.25
2018-06-16T00:37:29.535Z,93894.05
2018-06-16T00:39:57.250Z,93896.92
2018-06-16T00:42:25.023Z,93889.85
2018-06-16T00:44:52.985Z,93892.69
2018-06-16T00:47:20.646Z,93894.72
2018-06-16T00:49:48.325Z,93900.50
2018-06-16T00:52:15.989Z,93898.91
2018-06-16T00:54:43.684Z,93897.81
2018-06-16T00:57:17.231Z,93896.05
2018-06-16T00:59:44.837Z,93889.73
2018-06-16T01:02:12.495Z,93882.56
2018-06-16T01:04:40.181Z,93883.48
2018-06-16T01:07:07.847Z,93882.12
2018-06-16T01:09:35.732Z,93884.88
2018-06-16T01:12:03.415Z,93881.13
2018-06-16T01:14:31.107Z,93883.94
2018-06-16T01:16:58.902Z,93884.81
2018-06-16T01:19:26.670Z,93886.01
2018-06-16T01:21:54.395Z,93884.38
2018-06-16T01:24:22.066Z,93884.08
2018-06-16T01:26:49.814Z,93882.05
2018-06-16T01:29:17.502Z,93885.39
2018-06-16T01:31:45.146Z,93886.41
2018-06-16T01:34:12.822Z,93882.57
2018-06-16T01:36:40.537Z,93875.30
2018-06-16T01:39:09.687Z,93872.86
2018-06-16T01:41:37.501Z,93860.56
2018-06-16T01:44:05.515Z,93860.38
2018-06-16T01:46:33.420Z,93859.48
2018-06-16T01:49:01.496Z,93864.34
2018-06-16T01:51:29.192Z,93869.22
2018-06-16T01:53:56.925Z,93860.68
2018-06-16T01:56:24.596Z,93860.44
2018-06-16T01:58:52.610Z,93861.34
2018-06-16T02:01:20.323Z,93859.44
2018-06-16T02:03:48.003Z,93859.84
2018-06-16T02:06:15.659Z,93858.45
2018-06-16T02:08:43.361Z,93861.97
2018-06-16T02:11:11.073Z,93859.27
2018-06-16T02:13:38.733Z,93858.13
2018-06-16T02:16:06.410Z,93856.91
2018-06-16T02:18:34.071Z,93851.25
2018-06-16T02:21:02.015Z,93849.23
2018-06-16T02:23:29.711Z,93843.97
2018-06-16T02:25:57.387Z,93840.53
2018-06-16T02:28:25.065Z,93851.88
2018-06-16T02:30:52.748Z,93845.72
2018-06-16T02:33:20.398Z,93844.19
2018-06-16T02:35:48.232Z,93848.63
2018-06-16T02:38:15.991Z,93846.92
2018-06-16T02:40:43.759Z,93853.62
2018-06-16T02:43:11.514Z,93852.19
2018-06-16T02:45:40.278Z,93855.82
2018-06-16T02:48:08.061Z,93861.19
2018-06-16T02:50:35.965Z,93860.89
2018-06-16T02:53:03.567Z,93861.19
2018-06-16T02:55:31.283Z,93857.16
2018-06-16T02:57:58.947Z,93857.66
2018-06-16T03:00:26.785Z,93856.23
2018-06-16T03:02:54.451Z,93852.49
2018-06-16T03:05:22.734Z,93854.93
2018-06-16T03:07:50.882Z,93852.89
2018-06-16T03:10:18.617Z,93852.30
2018-06-16T03:12:46.293Z,93848.55
2018-06-16T03:15:14.035Z,93845.02
2018-06-16T03:17:41.794Z,93841.38
2018-06-16T03:20:09.495Z,93847.44
2018-06-16T03:22:37.233Z,93853.92
2018-06-16T03:25:04.915Z,93858.13
2018-06-16T03:27:32.566Z,93846.11
2018-06-16T03:30:00.242Z,93849.89
2018-06-16T03:32:27.931Z,93843.32
2018-06-16T03:34:55.951Z,93846.34
2018-06-16T03:37:23.714Z,93849.02
2018-06-16T03:39:51.533Z,93841.31
2018-06-16T03:42:19.184Z,93844.75
2018-06-16T03:44:46.888Z,93839.27
2018-06-16T03:47:14.595Z,93843.17
2018-06-16T03:49:42.257Z,93844.90
2018-06-16T03:52:10.102Z,93853.61
2018-06-16T03:54:37.863Z,93845.93
2018-06-16T03:57:05.521Z,93845.94
2018-06-16T03:59:33.192Z,93852.09
2018-06-16T04:02:00.878Z,93849.86
2018-06-16T04:04:28.543Z,93847.04
2018-06-16T04:06:56.223Z,93850.25
2018-06-16T04:09:23.939Z,93848.13
2018-06-16T04:11:51.606Z,93854.50
2018-06-16T04:14:19.883Z,93856.13
2018-06-16T04:16:47.819Z,93860.33
2018-06-16T04:19:15.602Z,93856.27
2018-06-16T04:21:43.378Z,93854.22
2018-06-16T04:24:11.051Z,93852.15
2018-06-16T04:26:38.718Z,93852.17
2018-06-16T04:29:06.435Z,93855.30
2018-06-16T04:31:34.151Z,93857.22
2018-06-16T04:34:01.927Z,93853.92
2018-06-16T04:36:29.612Z,93860.63
2018-06-16T04:38:57.406Z,93857.62
2018-06-16T04:41:25.083Z,93856.19
2018-06-16T04:43:52.782Z,93845.72
2018-06-16T04:46:20.476Z,93854.95
2018-06-16T04:48:48.154Z,93856.13
2018-06-16T04:51:16.467Z,93852.36
2018-06-16T04:53:44.167Z,93849.87
2018-06-16T04:56:11.893Z,93846.38
2018-06-16T04:58:39.612Z,93853.72
2018-06-16T05:01:07.307Z,93850.77
2018-06-16T05:03:35.043Z,93846.91
2018-06-16T05:06:02.840Z,93854.20
2018-06-16T05:08:30.694Z,93856.59
2018-06-16T05:10:58.482Z,93851.94
2018-06-16T05:13:26.155Z,93856.11
2018-06-16T05:15:53.884Z,93858.86
2018-06-16T05:18:21.555Z,93859.38
2018-06-16T05:20:49.331Z,93855.73
2018-06-16T05:23:17.011Z,93864.06
2018-06-16T05:25:44.747Z,93857.62
2018-06-16T05:28:12.419Z,93858.28
2018-06-16T05:30:40.101Z,93862.20
2018-06-16T05:33:07.766Z,93860.31
2018-06-16T05:35:35.453Z,93864.30
2018-06-16T05:38:03.173Z,93862.84
2018-06-16T05:40:30.992Z,93863.11
2018-06-16T05:42:58.731Z,93859.03
2018-06-16T05:45:26.410Z,93858.91
2018-06-16T05:47:54.134Z,93864.86
2018-06-16T05:50:21.992Z,93858.70
2018-06-16T05:52:49.691Z,93861.81
2018-06-16T05:55:17.359Z,93860.53
2018-06-16T05:57:45.087Z,93864.12
2018-06-16T06:00:12.803Z,93864.97
2018-06-16T06:02:40.491Z,93868.19
2018-06-16T06:05:08.214Z,93866.06
2018-06-16T06:07:35.946Z,93869.64
2018-06-16T06:10:03.686Z,93868.92
2018-06-16T06:12:31.370Z,93873.20
2018-06-16T06:14:59.286Z,93871.90
2018-06-16T06:17:26.951Z,93871.26
2018-06-16T06:19:54.610Z,93880.53
2018-06-16T06:22:22.313Z,93880.41
2018-06-16T06:24:49.994Z,93881.91
2018-06-16T06:27:17.708Z,93884.28
2018-06-16T06:29:45.430Z,93886.50
2018-06-16T06:32:13.138Z,93876.47
2018-06-16T06:34:40.859Z,93885.72
2018-06-16T06:37:08.548Z,93883.91
2018-06-16T06:39:36.254Z,93889.81
2018-06-16T06:42:03.993Z,93884.22
2018-06-16T06:44:31.818Z,93889.36
2018-06-16T06:46:59.514Z,93893.39
2018-06-16T06:49:27.254Z,93890.67
2018-06-16T06:51:54.982Z,93884.67
2018-06-16T06:54:22.662Z,93886.38
2018-06-16T06:56:50.368Z,93891.64
2018-06-16T06:59:18.311Z,93888.85
2018-06-16T07:01:45.994Z,93889.95
2018-06-16T07:04:13.704Z,93891.61
2018-06-16T07:06:41.420Z,93888.80
2018-06-16T07:09:10.476Z,93883.32
2018-06-16T07:11:38.182Z,93887.03
2018-06-16T07:14:05.922Z,93877.53
2018-06-16T07:16:33.631Z,93883.24
2018-06-16T07:19:01.331Z,93879.53
2018-06-16T07:21:29.063Z,93878.32
2018-06-16T07:23:57.768Z,93874.42
2018-06-16T07:26:25.528Z,93874.78
2018-06-16T07:28:53.298Z,93871.46
2018-06-16T07:31:21.023Z,93877.02
2018-06-16T07:33:48.767Z,93876.96
2018-06-16T07:36:16.517Z,93870.91
2018-06-16T07:38:44.357Z,93873.06
2018-06-16T07:41:12.059Z,93873.73
2018-06-16T07:43:39.743Z,93875.80
2018-06-16T07:46:07.463Z,93871.81
2018-06-16T07:48:35.139Z,93877.36
2018-06-16T07:51:02.866Z,93873.05
2018-06-16T07:53:30.606Z,93876.37
2018-06-16T07:55:58.316Z,93876.00
2018-06-16T07:58:26.079Z,93870.47
2018-06-16T08:00:53.831Z,93876.89
2018-06-16T08:03:21.552Z,93878.05
2018-06-16T08:05:49.263Z,93878.09
2018-06-16T08:08:17.006Z,93870.72
2018-06-16T08:10:44.702Z,93877.95
2018-06-16T08:13:12.492Z,93876.34
2018-06-16T08:15:40.214Z,93882.75
2018-06-16T08:18:07.951Z,93867.77
2018-06-16T08:20:35.854Z,93871.81
2018-06-16T08:23:03.577Z,93867.45
2018-06-16T08:25:31.296Z,93873.90
2018-06-16T08:27:59.018Z,93871.58
2018-06-16T08:30:26.715Z,93870.50
2018-06-16T08:32:54.427Z,93870.83
2018-06-16T08:35:22.159Z,93868.44
2018-06-16T08:37:49.851Z,93871.91
2018-06-16T08:40:17.519Z,93868.47
2018-06-16T08:42:45.198Z,93876.59
2018-06-16T08:45:12.932Z,93874.03
2018-06-16T08:47:40.620Z,93871.57
2018-06-16T08:50:08.318Z,93872.69
2018-06-16T08:52:36.032Z,93880.73
2018-06-16T08:55:04.113Z,93881.76
2018-06-16T08:57:31.807Z,93878.80
2018-06-16T08:59:59.507Z,93876.39
2018-06-16T09:02:27.190Z,93880.39
2018-06-16T09:04:54.928Z,93874.47
2018-06-16T09:07:22.611Z,93870.98
2018-06-16T09:09:50.680Z,93875.23
2018-06-16T09:12:18.412Z,93874.66
2018-06-16T09:14:46.103Z,93869.15
2018-06-16T09:17:13.841Z,93863.41
2018-06-16T09:19:41.534Z,93865.33
2018-06-16T09:22:09.261Z,93869.48
2018-06-16T09:24:36.971Z,93875.09
2018-06-16T09:27:04.687Z,93875.03
2018-06-16T09:29:32.403Z,93871.80
2018-06-16T09:32:00.090Z,93869.61
2018-06-16T09:34:27.811Z,93874.81
2018-06-16T09:36:55.602Z,93877.52
2018-06-16T09:39:23.292Z,93872.52
2018-06-16T09:41:51.005Z,93875.05
2018-06-16T09:44:18.694Z,93877.55
2018-06-16T09:46:46.419Z,93877.19
2018-06-16T09:49:14.130Z,93867.48
2018-06-16T09:51:42.123Z,93873.34
2018-06-16T09:54:09.815Z,93873.87
2018-06-16T09:56:37.644Z,93877.11
2018-06-16T09:59:05.422Z,93873.88
2018-06-16T10:01:33.099Z,93874.72
2018-06-16T10:04:00.836Z,93871.34
2018-06-16T10:06:28.521Z,93873.37
2018-06-16T10:08:56.266Z,93875.49
2018-06-16T10:11:24.980Z,93872.58
2018-06-16T10:13:52.823Z,93870.66
2018-06-16T10:16:20.547Z,93869.22
2018-06-16T10:18:48.248Z,93871.55
2018-06-16T10:21:15.986Z,93870.64
2018-06-16T10:23:43.671Z,93864.76
2018-06-16T10:26:11.498Z,93868.83
2018-06-16T10:28:39.184Z,93869.05
2018-06-16T10:31:06.919Z,93863.16
2018-06-16T10:33:34.631Z,93863.41
2018-06-16T10:36:02.332Z,93860.45
2018-06-16T10:38:30.222Z,93857.29
2018-06-16T10:40:57.897Z,93857.83
2018-06-16T10:43:25.577Z,93857.80
2018-06-16T10:45:53.382Z,93855.31
2018-06-16T10:48:21.054Z,93848.16
2018-06-16T10:50:49.211Z,93849.14
2018-06-16T10:53:16.937Z,93853.61
2018-06-16T10:55:44.757Z,93849.17
2018-06-16T10:58:12.444Z,93850.41
2018-06-16T11:00:40.183Z,93852.35
2018-06-16T11:03:08.188Z,93844.13
2018-06-16T11:05:35.868Z,93849.88
2018-06-16T11:08:03.587Z,93841.94
2018-06-16T11:10:31.344Z,93841.13
2018-06-16T11:12:59.043Z,93845.23
2018-06-16T11:15:26.733Z,93841.77
2018-06-16T11:17:54.460Z,93844.37
2018-06-16T11:20:22.131Z,93844.32
2018-06-16T11:22:49.846Z,93838.61
2018-06-16T11:25:17.583Z,93832.98
2018-06-16T11:27:45.281Z,93832.59
2018-06-16T11:30:13.278Z,93825.50
2018-06-16T11:32:40.964Z,93827.02
2018-06-16T11:35:08.718Z,93819.48
2018-06-16T11:37:36.876Z,93805.13
2018-06-16T11:40:04.864Z,93812.58
2018-06-16T11:42:32.535Z,93806.92
2018-06-16T11:45:00.242Z,93811.11
2018-06-16T11:47:27.949Z,93804.17
2018-06-16T11:49:55.720Z,93798.38
2018-06-16T11:52:23.463Z,93798.54
2018-06-16T11:54:51.474Z,93795.52
2018-06-16T11:57:19.180Z,93798.69
2018-06-16T11:59:46.900Z,93793.62
2018-06-16T12:02:14.601Z,93798.19
2018-06-16T12:04:42.240Z,93791.60
2018-06-16T12:07:09.917Z,93793.05
2018-06-16T12:09:37.662Z,93785.62
2018-06-16T12:12:05.443Z,93779.63
2018-06-16T12:14:33.123Z,93782.46
2018-06-16T12:17:00.865Z,93780.13
2018-06-16T12:19:28.554Z,93775.79
2018-06-16T12:21:56.227Z,93780.42
2018-06-16T12:24:23.936Z,93781.77
2018-06-16T12:26:51.631Z,93780.78
2018-06-16T12:29:20.441Z,93779.59
2018-06-16T12:31:48.143Z,93780.59
2018-06-16T12:34:15.840Z,93770.41
2018-06-16T12:36:43.539Z,93776.37
2018-06-16T12:39:11.481Z,93774.31
2018-06-16T12:41:39.478Z,93772.34
2018-06-16T12:44:07.196Z,93777.58
2018-06-16T12:46:34.879Z,93779.25
2018-06-16T12:49:02.643Z,93780.91
2018-06-16T12:51:30.338Z,93783.95
2018-06-16T12:53:58.090Z,93785.79
2018-06-16T12:56:26.256Z,93785.81
2018-06-16T12:58:53.950Z,93784.36
2018-06-16T13:01:21.723Z,93782.88
2018-06-16T13:03:49.722Z,93773.09
2018-06-16T13:06:17.430Z,93767.78
2018-06-16T13:08:45.126Z,93772.47
2018-06-16T13:11:13.135Z,93771.97
2018-06-16T13:13:40.818Z,93771.14
2018-06-16T13:16:08.515Z,93771.42
2018-06-16T13:18:36.246Z,93764.88
2018-06-16T13:21:03.947Z,93769.27
2018-06-16T13:23:31.698Z,93764.86
2018-06-16T13:25:59.418Z,93761.39
2018-06-16T13:28:27.094Z,93759.49
2018-06-16T13:30:54.811Z,93767.42
2018-06-16T13:33:22.557Z,93763.59
2018-06-16T13:35:50.256Z,93764.84
2018-06-16T13:38:17.979Z,93761.04
2018-06-16T13:40:45.671Z,93757.83
2018-06-16T13:43:13.473Z,93768.95
2018-06-16T13:45:41.266Z,93763.63
2018-06-16T13:48:09.011Z,93765.96
2018-06-16T13:50:36.694Z,93770.77
2018-06-16T13:53:04.567Z,93763.00
2018-06-16T13:55:32.263Z,93766.44
2018-06-16T13:58:00.014Z,93759.22
2018-06-16T14:00:27.735Z,93766.95
2018-06-16T14:02:55.438Z,93766.34
2018-06-16T14:05:23.116Z,93762.39
2018-06-16T14:07:50.845Z,93763.11
2018-06-16T14:10:19.603Z,93764.75
2018-06-16T14:12:47.293Z,93762.76
2018-06-16T14:15:14.974Z,93762.64
2018-06-16T14:17:42.719Z,93755.75
2018-06-16T14:20:10.591Z,93758.45
2018-06-16T14:22:38.696Z,93757.47
2018-06-16T14:25:06.415Z,93755.42
2018-06-16T14:27:34.191Z,93760.53
2018-06-16T14:30:02.936Z,93761.33
2018-06-16T14:32:30.670Z,93759.02
2018-06-16T14:34:58.342Z,93758.63
2018-06-16T14:37:26.087Z,93763.56
2018-06-16T14:39:53.791Z,93757.33
2018-06-16T14:42:21.555Z,93758.02
2018-06-16T14:44:49.264Z,93759.25
2018-06-16T14:47:16.954Z,93759.66
2018-06-16T14:49:44.648Z,93757.44
2018-06-16T14:52:12.407Z,93758.35
2018-06-16T14:54:40.146Z,93753.46
2018-06-16T14:57:07.832Z,93757.39
2018-06-16T14:59:35.508Z,93757.41
2018-06-16T15:02:03.275Z,93753.80
2018-06-16T15:04:31.003Z,93757.48
2018-06-16T15:06:58.959Z,93758.90
2018-06-16T15:09:26.717Z,93753.80
2018-06-16T15:11:54.369Z,93751.69
2018-06-16T15:14:22.131Z,93755.25
2018-06-16T15:16:49.866Z,93756.70
2018-06-16T15:19:17.615Z,93752.52
2018-06-16T15:21:45.315Z,93751.52
2018-06-16T15:24:12.990Z,93745.02
2018-06-16T15:26:40.946Z,93750.28
2018-06-16T15:29:08.674Z,93751.58
2018-06-16T15:31:36.413Z,93742.16
2018-06-16T15:34:04.252Z,93743.56
2018-06-16T15:36:32.005Z,93740.96
2018-06-16T15:38:59.733Z,93727.14
2018-06-16T15:41:27.471Z,93735.61
2018-06-16T15:43:55.226Z,93734.00
2018-06-16T15:46:22.951Z,93735.56
2018-06-16T15:48:50.651Z,93732.50
2018-06-16T15:51:18.407Z,93727.72
2018-06-16T15:53:46.151Z,93727.15
2018-06-16T15:56:13.846Z,93735.77
2018-06-16T15:58:41.530Z,93733.84
2018-06-16T16:01:09.252Z,93723.97
2018-06-16T16:03:36.963Z,93728.73
2018-06-16T16:06:04.812Z,93734.45
2018-06-16T16:08:32.527Z,93734.53
2018-06-16T16:11:00.202Z,93729.52
2018-06-16T16:13:27.914Z,93728.91
2018-06-16T16:15:55.708Z,93730.39
2018-06-16T16:18:23.449Z,93734.09
2018-06-16T16:20:51.122Z,93728.89
2018-06-16T16:23:18.877Z,93719.91
2018-06-16T16:25:46.596Z,93726.47
2018-06-16T16:28:14.263Z,93724.30
2018-06-16T16:30:42.340Z,93727.27
2018-06-16T16:33:10.059Z,93726.56
2018-06-16T16:35:37.737Z,93733.19
2018-06-16T16:38:05.602Z,93736.58
2018-06-16T16:40:33.294Z,93730.47
2018-06-16T16:43:00.963Z,93733.28
2018-06-16T16:45:28.727Z,93732.48
2018-06-16T16:47:56.505Z,93731.91
2018-06-16T16:50:24.194Z,93726.02
2018-06-16T16:52:52.023Z,93727.19
2018-06-16T16:55:19.719Z,93727.84
2018-06-16T16:57:47.466Z,93734.23
2018-06-16T17:00:15.234Z,93731.21
2018-06-16T17:02:42.926Z,93727.25
2018-06-16T17:05:10.623Z,93724.81
2018-06-16T17:07:38.314Z,93723.81
2018-06-16T17:10:06.161Z,93725.97
2018-06-16T17:12:33.850Z,93724.43
2018-06-16T17:15:01.559Z,93722.36
2018-06-16T17:17:29.314Z,93718.10
2018-06-16T17:19:56.994Z,93719.45
2018-06-16T17:22:25.011Z,93732.66
2018-06-16T17:24:52.762Z,93730.41
2018-06-16T17:27:20.487Z,93727.11
2018-06-16T17:29:48.259Z,93731.55
2018-06-16T17:32:15.936Z,93732.47
2018-06-16T17:34:43.634Z,93736.03
2018-06-16T17:37:11.354Z,93739.27
2018-06-16T17:39:39.031Z,93745.21
2018-06-16T17:42:06.746Z,93750.58
2018-06-16T17:44:34.467Z,93750.05
2018-06-16T17:47:02.203Z,93752.83
2018-06-16T17:49:29.931Z,93758.20
2018-06-16T17:51:57.618Z,93761.02
2018-06-16T17:54:25.343Z,93757.45
2018-06-16T17:56:53.042Z,93762.02
2018-06-16T17:59:20.742Z,93766.57
2018-06-16T18:01:48.954Z,93757.50
2018-06-16T18:04:16.679Z,93763.70
2018-06-16T18:06:44.453Z,93759.75
2018-06-16T18:09:12.679Z,93763.00
2018-06-16T18:11:40.482Z,93761.40
2018-06-16T18:14:08.643Z,93761.09
2018-06-16T18:16:36.306Z,93761.43
2018-06-16T18:19:04.059Z,93760.92
2018-06-16T18:21:32.074Z,93764.20
2018-06-16T18:23:59.799Z,93767.92
2018-06-16T18:26:27.512Z,93770.90
2018-06-16T18:28:55.283Z,93774.91
2018-06-16T18:31:23.971Z,93764.73
2018-06-16T18:33:51.658Z,93771.46
2018-06-16T18:36:19.311Z,93785.12
2018-06-16T18:38:47.016Z,93777.08
2018-06-16T18:41:14.715Z,93777.38
2018-06-16T18:43:42.417Z,93775.53
2018-06-16T18:46:10.192Z,93779.00
2018-06-16T18:48:37.925Z,93776.89
2018-06-16T18:51:05.674Z,93775.03
2018-06-16T18:53:33.351Z,93779.91
2018-06-16T18:56:01.151Z,93783.12
2018-06-16T18:58:28.846Z,93789.80
2018-06-16T19:00:56.534Z,93793.56
2018-06-16T19:03:24.209Z,93785.53
2018-06-16T19:05:51.931Z,93786.30
2018-06-16T19:08:19.667Z,93788.96
2018-06-16T19:10:47.391Z,93791.40
2018-06-16T19:13:15.071Z,93801.86
2018-06-16T19:15:42.860Z,93796.80
2018-06-16T19:18:10.576Z,93798.67
2018-06-16T19:20:38.301Z,93805.09
2018-06-16T19:23:07.137Z,93805.09
2018-06-16T19:25:34.751Z,93807.79
2018-06-16T19:28:02.522Z,93809.91
2018-06-16T19:30:30.242Z,93802.40
2018-06-16T19:32:57.931Z,93802.98
2018-06-16T19:35:25.687Z,93818.44
2018-06-16T19:37:53.436Z,93820.31
2018-06-16T19:40:21.152Z,93830.20
2018-06-16T19:42:48.871Z,93827.53
2018-06-16T19:45:16.569Z,93829.14
2018-06-16T19:47:44.296Z,93841.39
2018-06-16T19:50:12.023Z,93841.63
2018-06-16T19:52:39.785Z,93839.70
2018-06-16T19:55:07.654Z,93836.75
2018-06-16T19:57:35.339Z,93849.33
2018-06-16T20:00:03.170Z,93844.05
2018-06-16T20:02:31.034Z,93846.58
2018-06-16T20:04:59.676Z,93843.85
2018-06-16T20:07:27.431Z,93851.41
2018-06-16T20:09:55.181Z,93854.33
2018-06-16T20:12:22.906Z,93855.67
2018-06-16T20:14:50.594Z,93857.25
2018-06-16T20:17:18.362Z,93862.34
2018-06-16T20:19:46.147Z,93861.25
2018-06-16T20:22:13.891Z,93864.19
2018-06-16T20:24:41.599Z,93867.63
2018-06-16T20:27:09.347Z,93866.59
2018-06-16T20:29:37.286Z,93872.19
2018-06-16T20:32:05.015Z,93874.02
2018-06-16T20:34:32.760Z,93871.13
2018-06-16T20:37:00.542Z,93872.14
2018-06-16T20:39:28.234Z,93873.22
2018-06-16T20:41:55.992Z,93873.28
2018-06-16T20:44:23.728Z,93871.11
2018-06-16T20:46:51.464Z,93882.80
2018-06-16T20:49:19.123Z,93879.57
2018-06-16T20:51:47.858Z,93883.80
2018-06-16T20:54:15.561Z,93885.36
2018-06-16T20:56:43.229Z,93876.22
2018-06-16T20:59:10.956Z,93881.80
2018-06-16T21:01:38.672Z,93883.00
2018-06-16T21:04:06.422Z,93877.00
2018-06-16T21:06:34.150Z,93878.91
2018-06-16T21:09:01.923Z,93880.39
2018-06-16T21:11:29.665Z,93880.98
2018-06-16T21:13:57.349Z,93882.78
2018-06-16T21:16:25.102Z,93887.13
2018-06-16T21:18:52.815Z,93877.29
2018-06-16T21:21:20.647Z,93880.68
2018-06-16T21:23:48.311Z,93884.07
2018-06-16T21:26:16.004Z,93885.58
2018-06-16T21:28:43.687Z,93882.52
2018-06-16T21:31:11.442Z,93883.57
2018-06-16T21:33:39.157Z,93884.95
2018-06-16T21:36:06.867Z,93885.95
2018-06-16T21:38:34.640Z,93892.81
2018-06-16T21:41:02.329Z,93894.38
2018-06-16T21:43:30.039Z,93898.20
2018-06-16T21:45:57.730Z,93895.06
2018-06-16T21:48:25.450Z,93891.33
2018-06-16T21:50:53.153Z,93898.27
2018-06-16T21:53:20.860Z,93892.94
2018-06-16T21:55:48.598Z,93892.75
2018-06-16T21:58:16.293Z,93893.00
2018-06-16T22:00:44.025Z,93897.55
2018-06-16T22:03:11.751Z,93892.66
2018-06-16T22:05:39.423Z,93893.45
2018-06-16T22:08:12.835Z,93897.91
2018-06-16T22:10:40.515Z,93897.45
2018-06-16T22:13:08.230Z,93904.09
2018-06-16T22:15:35.959Z,93911.43
2018-06-16T22:18:03.702Z,93907.66
2018-06-16T22:20:31.375Z,93912.17
2018-06-16T22:22:59.126Z,93908.06
2018-06-16T22:25:26.822Z,93913.88
2018-06-16T22:27:54.495Z,93909.45
2018-06-16T22:30:22.170Z,93916.50
2018-06-16T22:32:49.882Z,93916.21
2018-06-16T22:35:17.576Z,93912.88
2018-06-16T22:37:45.278Z,93908.81
2018-06-16T22:40:12.954Z,93908.23
2018-06-16T22:42:41.008Z,93911.70
2018-06-16T22:45:08.731Z,93914.94
2018-06-16T22:47:36.436Z,93916.45
2018-06-16T22:50:04.208Z,93921.81
2018-06-16T22:52:31.870Z,93916.61
2018-06-16T22:54:59.591Z,93920.28
2018-06-16T22:57:27.395Z,93921.78
2018-06-16T22:59:55.142Z,93920.58
2018-06-16T23:02:22.891Z,93923.05
2018-06-16T23:04:50.791Z,93924.00
2018-06-16T23:07:18.592Z,93925.41
2018-06-16T23:09:46.303Z,93921.23
2018-06-16T23:12:13.954Z,93923.05
2018-06-16T23:14:41.654Z,93929.40
2018-06-16T23:17:09.358Z,93926.42
2018-06-16T23:19:37.037Z,93923.77
2018-06-16T23:22:04.779Z,93933.31
2018-06-16T23:24:32.469Z,93932.22
2018-06-16T23:27:00.195Z,93927.37
2018-06-16T23:29:27.916Z,93930.42
2018-06-16T23:31:55.606Z,93928.96
2018-06-16T23:34:23.339Z,93931.09
2018-06-16T23:36:51.114Z,93935.23
2018-06-16T23:39:18.814Z,93937.67
2018-06-16T23:41:46.503Z,93938.15
2018-06-16T23:44:15.146Z,93936.98
2018-06-16T23:46:42.860Z,93937.23
2018-06-16T23:49:10.647Z,93936.41
2018-06-16T23:51:38.380Z,93937.54
2018-06-16T23:54:06.158Z,93937.67
2018-06-16T23:56:33.874Z,93937.80
2018-06-16T23:59:01.580Z,93938.05
